sensor_id;sensor_type;location;lat;lon;timestamp;P1;durP1;ratioP1;P2;durP2;ratioP2
59115;SDS011;53564;51.930;4.640;2022-09-12T00:01:55;11.93;;;4.65;;
59115;SDS011;53564;51.930;4.640;2022-09-12T00:04:20;12.25;;;4.82;;
59115;SDS011;53564;51.930;4.640;2022-09-12T00:06:46;14.35;;;6.00;;
59115;SDS011;53564;51.930;4.640;2022-09-12T00:09:12;13.90;;;6.03;;
59115;SDS011;53564;51.930;4.640;2022-09-12T00:11:39;12.57;;;5.20;;
59115;SDS011;53564;51.930;4.640;2022-09-12T00:14:06;11.05;;;4.13;;
59115;SDS011;53564;51.930;4.640;2022-09-12T00:16:33;12.55;;;4.75;;
59115;SDS011;53564;51.930;4.640;2022-09-12T00:19:00;14.98;;;6.88;;
59115;SDS011;53564;51.930;4.640;2022-09-12T00:21:26;14.30;;;7.15;;
59115;SDS011;53564;51.930;4.640;2022-09-12T00:23:51;12.80;;;5.32;;
59115;SDS011;53564;51.930;4.640;2022-09-12T00:26:17;13.60;;;6.32;;
59115;SDS011;53564;51.930;4.640;2022-09-12T00:28:43;13.77;;;6.18;;
59115;SDS011;53564;51.930;4.640;2022-09-12T00:31:10;18.00;;;8.93;;
59115;SDS011;53564;51.930;4.640;2022-09-12T00:33:38;13.00;;;6.03;;
59115;SDS011;53564;51.930;4.640;2022-09-12T00:36:05;13.90;;;5.93;;
59115;SDS011;53564;51.930;4.640;2022-09-12T00:38:32;12.43;;;5.47;;
59115;SDS011;53564;51.930;4.640;2022-09-12T00:40:58;13.05;;;5.88;;
59115;SDS011;53564;51.930;4.640;2022-09-12T00:45:55;16.17;;;7.32;;
59115;SDS011;53564;51.930;4.640;2022-09-12T00:48:29;13.52;;;5.78;;
59115;SDS011;53564;51.930;4.640;2022-09-12T00:50:58;17.42;;;8.80;;
59115;SDS011;53564;51.930;4.640;2022-09-12T00:53:23;14.75;;;6.35;;
59115;SDS011;53564;51.930;4.640;2022-09-12T00:55:49;13.98;;;5.70;;
59115;SDS011;53564;51.930;4.640;2022-09-12T00:58:21;13.18;;;5.03;;
59115;SDS011;53564;51.930;4.640;2022-09-12T01:00:48;12.90;;;5.65;;
59115;SDS011;53564;51.930;4.640;2022-09-12T01:03:18;15.15;;;6.53;;
59115;SDS011;53564;51.930;4.640;2022-09-12T01:06:29;13.57;;;6.28;;
59115;SDS011;53564;51.930;4.640;2022-09-12T01:08:40;14.23;;;5.90;;
59115;SDS011;53564;51.930;4.640;2022-09-12T01:11:08;18.75;;;8.35;;
59115;SDS011;53564;51.930;4.640;2022-09-12T01:13:34;15.52;;;6.43;;
59115;SDS011;53564;51.930;4.640;2022-09-12T01:16:01;12.85;;;5.38;;
59115;SDS011;53564;51.930;4.640;2022-09-12T01:18:31;12.80;;;5.68;;
59115;SDS011;53564;51.930;4.640;2022-09-12T01:21:50;14.25;;;6.35;;
59115;SDS011;53564;51.930;4.640;2022-09-12T01:36:17;15.07;;;7.35;;
59115;SDS011;53564;51.930;4.640;2022-09-12T01:43:34;11.57;;;5.15;;
59115;SDS011;53564;51.930;4.640;2022-09-12T01:46:18;12.90;;;5.85;;
59115;SDS011;53564;51.930;4.640;2022-09-12T01:49:09;15.13;;;7.40;;
59115;SDS011;53564;51.930;4.640;2022-09-12T01:51:41;14.55;;;6.82;;
59115;SDS011;53564;51.930;4.640;2022-09-12T01:54:18;17.15;;;8.32;;
59115;SDS011;53564;51.930;4.640;2022-09-12T01:56:48;14.20;;;5.93;;
59115;SDS011;53564;51.930;4.640;2022-09-12T01:59:17;14.43;;;5.95;;
59115;SDS011;53564;51.930;4.640;2022-09-12T02:01:54;12.77;;;5.38;;
59115;SDS011;53564;51.930;4.640;2022-09-12T02:04:27;11.88;;;4.95;;
59115;SDS011;53564;51.930;4.640;2022-09-12T02:07:01;12.75;;;4.88;;
59115;SDS011;53564;51.930;4.640;2022-09-12T02:09:40;16.63;;;6.53;;
59115;SDS011;53564;51.930;4.640;2022-09-12T02:12:11;14.38;;;6.30;;
59115;SDS011;53564;51.930;4.640;2022-09-12T02:14:41;15.20;;;6.97;;
59115;SDS011;53564;51.930;4.640;2022-09-12T02:17:12;13.30;;;6.10;;
59115;SDS011;53564;51.930;4.640;2022-09-12T02:19:51;14.20;;;5.93;;
59115;SDS011;53564;51.930;4.640;2022-09-12T02:22:21;13.18;;;5.78;;
59115;SDS011;53564;51.930;4.640;2022-09-12T02:24:51;16.48;;;7.00;;
59115;SDS011;53564;51.930;4.640;2022-09-12T02:27:22;20.02;;;10.15;;
59115;SDS011;53564;51.930;4.640;2022-09-12T02:29:51;21.27;;;10.77;;
59115;SDS011;53564;51.930;4.640;2022-09-12T02:32:21;17.70;;;7.35;;
59115;SDS011;53564;51.930;4.640;2022-09-12T02:37:39;16.60;;;7.30;;
59115;SDS011;53564;51.930;4.640;2022-09-12T02:40:20;18.33;;;8.93;;
59115;SDS011;53564;51.930;4.640;2022-09-12T02:42:46;20.00;;;9.90;;
59115;SDS011;53564;51.930;4.640;2022-09-12T02:45:12;20.73;;;10.27;;
59115;SDS011;53564;51.930;4.640;2022-09-12T02:47:42;17.70;;;8.65;;
59115;SDS011;53564;51.930;4.640;2022-09-12T02:50:12;19.00;;;9.35;;
59115;SDS011;53564;51.930;4.640;2022-09-12T02:52:38;19.55;;;9.27;;
59115;SDS011;53564;51.930;4.640;2022-09-12T02:55:05;20.50;;;10.60;;
59115;SDS011;53564;51.930;4.640;2022-09-12T02:57:31;19.30;;;10.23;;
59115;SDS011;53564;51.930;4.640;2022-09-12T02:59:58;20.13;;;10.77;;
59115;SDS011;53564;51.930;4.640;2022-09-12T03:02:34;20.58;;;10.55;;
59115;SDS011;53564;51.930;4.640;2022-09-12T03:07:59;21.70;;;11.77;;
59115;SDS011;53564;51.930;4.640;2022-09-12T03:13:39;20.48;;;10.50;;
59115;SDS011;53564;51.930;4.640;2022-09-12T03:16:31;20.05;;;10.85;;
59115;SDS011;53564;51.930;4.640;2022-09-12T03:21:39;25.45;;;12.00;;
59115;SDS011;53564;51.930;4.640;2022-09-12T03:24:12;23.80;;;11.50;;
59115;SDS011;53564;51.930;4.640;2022-09-12T03:26:43;14.25;;;6.43;;
59115;SDS011;53564;51.930;4.640;2022-09-12T03:29:16;21.52;;;11.35;;
59115;SDS011;53564;51.930;4.640;2022-09-12T03:31:50;20.63;;;10.48;;
59115;SDS011;53564;51.930;4.640;2022-09-12T03:34:18;21.42;;;10.85;;
59115;SDS011;53564;51.930;4.640;2022-09-12T03:36:44;23.42;;;11.75;;
59115;SDS011;53564;51.930;4.640;2022-09-12T03:39:09;18.73;;;8.70;;
59115;SDS011;53564;51.930;4.640;2022-09-12T03:41:34;23.42;;;11.65;;
59115;SDS011;53564;51.930;4.640;2022-09-12T03:44:00;15.50;;;6.85;;
59115;SDS011;53564;51.930;4.640;2022-09-12T03:46:25;23.45;;;11.93;;
59115;SDS011;53564;51.930;4.640;2022-09-12T03:48:50;24.77;;;13.27;;
59115;SDS011;53564;51.930;4.640;2022-09-12T03:51:16;25.30;;;13.68;;
59115;SDS011;53564;51.930;4.640;2022-09-12T03:53:41;23.80;;;12.65;;
59115;SDS011;53564;51.930;4.640;2022-09-12T03:56:07;14.50;;;5.97;;
59115;SDS011;53564;51.930;4.640;2022-09-12T03:58:34;18.67;;;8.23;;
59115;SDS011;53564;51.930;4.640;2022-09-12T04:01:04;17.10;;;8.45;;
59115;SDS011;53564;51.930;4.640;2022-09-12T04:03:31;14.60;;;6.82;;
59115;SDS011;53564;51.930;4.640;2022-09-12T04:05:56;13.35;;;6.00;;
59115;SDS011;53564;51.930;4.640;2022-09-12T04:08:22;17.20;;;7.70;;
59115;SDS011;53564;51.930;4.640;2022-09-12T04:10:47;21.17;;;10.68;;
59115;SDS011;53564;51.930;4.640;2022-09-12T04:13:12;18.10;;;9.55;;
59115;SDS011;53564;51.930;4.640;2022-09-12T04:15:37;16.77;;;7.68;;
59115;SDS011;53564;51.930;4.640;2022-09-12T04:18:03;17.13;;;7.38;;
59115;SDS011;53564;51.930;4.640;2022-09-12T04:20:28;17.08;;;8.05;;
59115;SDS011;53564;51.930;4.640;2022-09-12T04:22:53;22.35;;;10.75;;
59115;SDS011;53564;51.930;4.640;2022-09-12T04:25:19;16.17;;;7.78;;
59115;SDS011;53564;51.930;4.640;2022-09-12T04:27:44;16.15;;;6.53;;
59115;SDS011;53564;51.930;4.640;2022-09-12T04:30:09;16.98;;;7.60;;
59115;SDS011;53564;51.930;4.640;2022-09-12T04:32:35;18.75;;;9.90;;
59115;SDS011;53564;51.930;4.640;2022-09-12T04:35:00;21.02;;;9.85;;
59115;SDS011;53564;51.930;4.640;2022-09-12T04:37:26;23.17;;;11.18;;
59115;SDS011;53564;51.930;4.640;2022-09-12T04:39:51;18.25;;;8.05;;
59115;SDS011;53564;51.930;4.640;2022-09-12T04:42:21;15.13;;;6.50;;
59115;SDS011;53564;51.930;4.640;2022-09-12T04:44:46;16.88;;;6.03;;
59115;SDS011;53564;51.930;4.640;2022-09-12T04:47:12;13.93;;;6.40;;
59115;SDS011;53564;51.930;4.640;2022-09-12T04:49:37;14.43;;;6.28;;
59115;SDS011;53564;51.930;4.640;2022-09-12T04:52:02;14.10;;;6.35;;
59115;SDS011;53564;51.930;4.640;2022-09-12T04:54:27;15.63;;;7.07;;
59115;SDS011;53564;51.930;4.640;2022-09-12T04:56:53;14.50;;;6.82;;
59115;SDS011;53564;51.930;4.640;2022-09-12T04:59:19;21.15;;;10.70;;
59115;SDS011;53564;51.930;4.640;2022-09-12T05:01:45;14.90;;;6.78;;
59115;SDS011;53564;51.930;4.640;2022-09-12T05:04:12;14.13;;;5.90;;
59115;SDS011;53564;51.930;4.640;2022-09-12T05:06:38;17.75;;;8.52;;
59115;SDS011;53564;51.930;4.640;2022-09-12T05:09:05;16.40;;;7.18;;
59115;SDS011;53564;51.930;4.640;2022-09-12T05:11:36;16.73;;;7.88;;
59115;SDS011;53564;51.930;4.640;2022-09-12T05:14:03;16.50;;;6.93;;
59115;SDS011;53564;51.930;4.640;2022-09-12T05:16:29;19.67;;;9.43;;
59115;SDS011;53564;51.930;4.640;2022-09-12T05:18:56;14.35;;;6.68;;
59115;SDS011;53564;51.930;4.640;2022-09-12T05:21:22;16.45;;;6.93;;
59115;SDS011;53564;51.930;4.640;2022-09-12T05:23:52;14.75;;;6.93;;
59115;SDS011;53564;51.930;4.640;2022-09-12T05:26:19;14.82;;;7.00;;
59115;SDS011;53564;51.930;4.640;2022-09-12T05:28:45;16.38;;;7.10;;
59115;SDS011;53564;51.930;4.640;2022-09-12T05:31:13;14.30;;;6.25;;
59115;SDS011;53564;51.930;4.640;2022-09-12T05:33:41;20.13;;;8.98;;
59115;SDS011;53564;51.930;4.640;2022-09-12T05:36:15;16.02;;;6.95;;
59115;SDS011;53564;51.930;4.640;2022-09-12T05:38:41;16.83;;;7.22;;
59115;SDS011;53564;51.930;4.640;2022-09-12T05:41:08;16.77;;;7.18;;
59115;SDS011;53564;51.930;4.640;2022-09-12T05:43:36;15.45;;;6.70;;
59115;SDS011;53564;51.930;4.640;2022-09-12T05:46:04;17.42;;;7.38;;
59115;SDS011;53564;51.930;4.640;2022-09-12T05:48:32;16.98;;;7.68;;
59115;SDS011;53564;51.930;4.640;2022-09-12T05:51:02;16.90;;;8.07;;
59115;SDS011;53564;51.930;4.640;2022-09-12T05:53:33;15.82;;;6.93;;
59115;SDS011;53564;51.930;4.640;2022-09-12T05:56:13;20.02;;;9.25;;
59115;SDS011;53564;51.930;4.640;2022-09-12T05:58:41;17.33;;;7.55;;
59115;SDS011;53564;51.930;4.640;2022-09-12T06:01:09;17.80;;;8.60;;
59115;SDS011;53564;51.930;4.640;2022-09-12T06:03:39;18.13;;;8.18;;
59115;SDS011;53564;51.930;4.640;2022-09-12T06:06:27;16.50;;;6.70;;
59115;SDS011;53564;51.930;4.640;2022-09-12T06:08:58;16.20;;;7.55;;
59115;SDS011;53564;51.930;4.640;2022-09-12T06:11:26;17.73;;;7.63;;
59115;SDS011;53564;51.930;4.640;2022-09-12T06:13:54;18.40;;;7.93;;
59115;SDS011;53564;51.930;4.640;2022-09-12T06:16:21;16.85;;;7.82;;
59115;SDS011;53564;51.930;4.640;2022-09-12T06:18:50;17.88;;;8.50;;
59115;SDS011;53564;51.930;4.640;2022-09-12T06:21:18;17.98;;;8.18;;
59115;SDS011;53564;51.930;4.640;2022-09-12T06:23:44;16.33;;;7.55;;
59115;SDS011;53564;51.930;4.640;2022-09-12T06:26:11;20.38;;;9.95;;
59115;SDS011;53564;51.930;4.640;2022-09-12T06:28:38;19.13;;;9.18;;
59115;SDS011;53564;51.930;4.640;2022-09-12T06:31:09;19.10;;;8.63;;
59115;SDS011;53564;51.930;4.640;2022-09-12T06:33:37;20.73;;;8.40;;
59115;SDS011;53564;51.930;4.640;2022-09-12T06:36:05;17.67;;;8.32;;
59115;SDS011;53564;51.930;4.640;2022-09-12T06:38:33;23.27;;;11.52;;
59115;SDS011;53564;51.930;4.640;2022-09-12T06:40:59;20.05;;;9.40;;
59115;SDS011;53564;51.930;4.640;2022-09-12T06:43:27;19.33;;;9.57;;
59115;SDS011;53564;51.930;4.640;2022-09-12T06:45:55;18.98;;;8.98;;
59115;SDS011;53564;51.930;4.640;2022-09-12T06:48:21;22.42;;;11.43;;
59115;SDS011;53564;51.930;4.640;2022-09-12T06:50:59;19.60;;;9.13;;
59115;SDS011;53564;51.930;4.640;2022-09-12T06:53:29;21.80;;;10.55;;
59115;SDS011;53564;51.930;4.640;2022-09-12T06:56:01;18.67;;;9.07;;
59115;SDS011;53564;51.930;4.640;2022-09-12T06:58:34;20.95;;;10.85;;
59115;SDS011;53564;51.930;4.640;2022-09-12T07:01:12;23.20;;;12.23;;
59115;SDS011;53564;51.930;4.640;2022-09-12T07:03:42;24.25;;;11.38;;
59115;SDS011;53564;51.930;4.640;2022-09-12T07:06:14;22.50;;;10.40;;
59115;SDS011;53564;51.930;4.640;2022-09-12T07:08:42;26.60;;;12.23;;
59115;SDS011;53564;51.930;4.640;2022-09-12T07:11:18;31.02;;;16.52;;
59115;SDS011;53564;51.930;4.640;2022-09-12T07:13:52;30.05;;;16.67;;
59115;SDS011;53564;51.930;4.640;2022-09-12T07:16:20;29.45;;;14.48;;
59115;SDS011;53564;51.930;4.640;2022-09-12T07:18:48;24.10;;;11.73;;
59115;SDS011;53564;51.930;4.640;2022-09-12T07:21:15;29.90;;;15.10;;
59115;SDS011;53564;51.930;4.640;2022-09-12T07:23:40;29.30;;;13.38;;
59115;SDS011;53564;51.930;4.640;2022-09-12T07:26:07;27.45;;;13.13;;
59115;SDS011;53564;51.930;4.640;2022-09-12T07:28:34;23.65;;;10.27;;
59115;SDS011;53564;51.930;4.640;2022-09-12T07:31:06;25.13;;;12.68;;
59115;SDS011;53564;51.930;4.640;2022-09-12T07:33:37;28.40;;;13.20;;
59115;SDS011;53564;51.930;4.640;2022-09-12T07:36:05;26.05;;;12.45;;
59115;SDS011;53564;51.930;4.640;2022-09-12T07:38:32;19.98;;;9.68;;
59115;SDS011;53564;51.930;4.640;2022-09-12T07:40:58;22.52;;;11.07;;
59115;SDS011;53564;51.930;4.640;2022-09-12T07:43:23;22.33;;;9.55;;
59115;SDS011;53564;51.930;4.640;2022-09-12T07:45:53;25.83;;;10.27;;
59115;SDS011;53564;51.930;4.640;2022-09-12T07:48:19;24.05;;;12.00;;
59115;SDS011;53564;51.930;4.640;2022-09-12T07:50:44;22.70;;;10.95;;
59115;SDS011;53564;51.930;4.640;2022-09-12T07:53:10;27.48;;;12.65;;
59115;SDS011;53564;51.930;4.640;2022-09-12T07:55:35;23.83;;;10.45;;
59115;SDS011;53564;51.930;4.640;2022-09-12T07:58:00;28.38;;;13.93;;
59115;SDS011;53564;51.930;4.640;2022-09-12T08:00:26;26.35;;;12.20;;
59115;SDS011;53564;51.930;4.640;2022-09-12T08:02:59;23.30;;;10.70;;
59115;SDS011;53564;51.930;4.640;2022-09-12T08:05:26;28.48;;;15.55;;
59115;SDS011;53564;51.930;4.640;2022-09-12T08:07:52;19.50;;;10.35;;
59115;SDS011;53564;51.930;4.640;2022-09-12T08:10:17;24.85;;;11.23;;
59115;SDS011;53564;51.930;4.640;2022-09-12T08:12:42;23.25;;;12.55;;
59115;SDS011;53564;51.930;4.640;2022-09-12T08:15:08;29.00;;;12.65;;
59115;SDS011;53564;51.930;4.640;2022-09-12T08:17:33;20.98;;;10.05;;
59115;SDS011;53564;51.930;4.640;2022-09-12T08:19:58;26.08;;;12.18;;
59115;SDS011;53564;51.930;4.640;2022-09-12T08:22:24;23.05;;;9.52;;
59115;SDS011;53564;51.930;4.640;2022-09-12T08:24:49;22.02;;;10.13;;
59115;SDS011;53564;51.930;4.640;2022-09-12T08:27:15;24.88;;;13.07;;
59115;SDS011;53564;51.930;4.640;2022-09-12T08:29:40;24.48;;;12.63;;
59115;SDS011;53564;51.930;4.640;2022-09-12T08:32:05;23.27;;;11.60;;
59115;SDS011;53564;51.930;4.640;2022-09-12T08:34:31;24.95;;;11.93;;
59115;SDS011;53564;51.930;4.640;2022-09-12T08:36:57;22.52;;;11.30;;
59115;SDS011;53564;51.930;4.640;2022-09-12T08:39:22;23.38;;;12.13;;
59115;SDS011;53564;51.930;4.640;2022-09-12T08:41:53;19.75;;;9.48;;
59115;SDS011;53564;51.930;4.640;2022-09-12T08:44:26;22.48;;;11.95;;
59115;SDS011;53564;51.930;4.640;2022-09-12T08:50:15;22.55;;;10.95;;
59115;SDS011;53564;51.930;4.640;2022-09-12T08:52:54;22.10;;;9.57;;
59115;SDS011;53564;51.930;4.640;2022-09-12T08:58:21;22.40;;;9.77;;
59115;SDS011;53564;51.930;4.640;2022-09-12T09:00:51;23.02;;;10.55;;
59115;SDS011;53564;51.930;4.640;2022-09-12T09:03:28;22.25;;;10.73;;
59115;SDS011;53564;51.930;4.640;2022-09-12T09:06:24;20.00;;;9.07;;
59115;SDS011;53564;51.930;4.640;2022-09-12T09:09:05;20.23;;;9.90;;
59115;SDS011;53564;51.930;4.640;2022-09-12T09:14:36;22.55;;;10.43;;
59115;SDS011;53564;51.930;4.640;2022-09-12T09:17:57;19.05;;;8.82;;
59115;SDS011;53564;51.930;4.640;2022-09-12T09:22:55;19.27;;;8.60;;
59115;SDS011;53564;51.930;4.640;2022-09-12T09:26:01;18.02;;;8.25;;
59115;SDS011;53564;51.930;4.640;2022-09-12T09:28:38;18.00;;;8.75;;
59115;SDS011;53564;51.930;4.640;2022-09-12T09:31:18;15.68;;;6.97;;
59115;SDS011;53564;51.930;4.640;2022-09-12T09:33:51;15.05;;;6.55;;
59115;SDS011;53564;51.930;4.640;2022-09-12T09:36:21;13.13;;;5.93;;
59115;SDS011;53564;51.930;4.640;2022-09-12T09:44:35;12.07;;;4.97;;
59115;SDS011;53564;51.930;4.640;2022-09-12T09:47:01;15.25;;;5.07;;
59115;SDS011;53564;51.930;4.640;2022-09-12T09:49:27;12.63;;;5.28;;
59115;SDS011;53564;51.930;4.640;2022-09-12T09:51:57;13.38;;;5.30;;
59115;SDS011;53564;51.930;4.640;2022-09-12T09:54:35;12.98;;;4.78;;
59115;SDS011;53564;51.930;4.640;2022-09-12T09:57:30;13.18;;;4.85;;
59115;SDS011;53564;51.930;4.640;2022-09-12T10:02:43;14.00;;;5.22;;
59115;SDS011;53564;51.930;4.640;2022-09-12T10:05:34;12.90;;;5.72;;
59115;SDS011;53564;51.930;4.640;2022-09-12T10:08:18;14.07;;;5.95;;
59115;SDS011;53564;51.930;4.640;2022-09-12T10:10:55;13.07;;;4.82;;
59115;SDS011;53564;51.930;4.640;2022-09-12T10:16:29;12.40;;;5.05;;
59115;SDS011;53564;51.930;4.640;2022-09-12T10:18:58;12.88;;;4.70;;
59115;SDS011;53564;51.930;4.640;2022-09-12T10:21:38;15.52;;;4.70;;
59115;SDS011;53564;51.930;4.640;2022-09-12T10:26:53;11.20;;;4.43;;
59115;SDS011;53564;51.930;4.640;2022-09-12T10:29:22;12.15;;;5.03;;
59115;SDS011;53564;51.930;4.640;2022-09-12T10:31:58;12.73;;;5.15;;
59115;SDS011;53564;51.930;4.640;2022-09-12T10:34:33;13.80;;;5.80;;
59115;SDS011;53564;51.930;4.640;2022-09-12T10:37:06;13.02;;;5.50;;
59115;SDS011;53564;51.930;4.640;2022-09-12T10:39:33;13.20;;;5.10;;
59115;SDS011;53564;51.930;4.640;2022-09-12T10:42:02;12.93;;;5.35;;
59115;SDS011;53564;51.930;4.640;2022-09-12T10:44:29;12.82;;;5.55;;
59115;SDS011;53564;51.930;4.640;2022-09-12T10:46:57;14.00;;;5.85;;
59115;SDS011;53564;51.930;4.640;2022-09-12T10:49:25;13.82;;;5.60;;
59115;SDS011;53564;51.930;4.640;2022-09-12T10:51:53;13.25;;;5.65;;
59115;SDS011;53564;51.930;4.640;2022-09-12T10:54:21;16.45;;;5.53;;
59115;SDS011;53564;51.930;4.640;2022-09-12T10:59:44;13.50;;;5.50;;
59115;SDS011;53564;51.930;4.640;2022-09-12T11:02:29;14.75;;;5.72;;
59115;SDS011;53564;51.930;4.640;2022-09-12T11:05:21;13.38;;;5.45;;
59115;SDS011;53564;51.930;4.640;2022-09-12T11:08:13;13.82;;;6.10;;
59115;SDS011;53564;51.930;4.640;2022-09-12T11:10:54;14.13;;;5.40;;
59115;SDS011;53564;51.930;4.640;2022-09-12T11:13:37;14.60;;;5.38;;
59115;SDS011;53564;51.930;4.640;2022-09-12T11:16:17;13.05;;;4.55;;
59115;SDS011;53564;51.930;4.640;2022-09-12T11:21:46;13.50;;;4.93;;
59115;SDS011;53564;51.930;4.640;2022-09-12T11:27:17;12.15;;;5.18;;
59115;SDS011;53564;51.930;4.640;2022-09-12T11:30:02;12.52;;;5.38;;
59115;SDS011;53564;51.930;4.640;2022-09-12T11:35:18;13.15;;;5.15;;
59115;SDS011;53564;51.930;4.640;2022-09-12T11:40:48;11.50;;;4.88;;
59115;SDS011;53564;51.930;4.640;2022-09-12T11:48:59;12.70;;;5.20;;
59115;SDS011;53564;51.930;4.640;2022-09-12T11:55:05;10.77;;;4.20;;
59115;SDS011;53564;51.930;4.640;2022-09-12T11:57:38;12.85;;;5.00;;
59115;SDS011;53564;51.930;4.640;2022-09-12T12:00:15;13.00;;;4.63;;
59115;SDS011;53564;51.930;4.640;2022-09-12T12:05:42;12.48;;;5.05;;
59115;SDS011;53564;51.930;4.640;2022-09-12T12:08:16;11.95;;;4.82;;
59115;SDS011;53564;51.930;4.640;2022-09-12T12:10:55;12.05;;;4.93;;
59115;SDS011;53564;51.930;4.640;2022-09-12T12:13:34;13.98;;;5.20;;
59115;SDS011;53564;51.930;4.640;2022-09-12T12:21:18;12.82;;;5.28;;
59115;SDS011;53564;51.930;4.640;2022-09-12T12:29:09;12.57;;;4.90;;
59115;SDS011;53564;51.930;4.640;2022-09-12T12:34:30;12.40;;;5.30;;
59115;SDS011;53564;51.930;4.640;2022-09-12T12:36:55;13.10;;;4.72;;
59115;SDS011;53564;51.930;4.640;2022-09-12T12:41:56;13.57;;;4.57;;
59115;SDS011;53564;51.930;4.640;2022-09-12T12:44:46;11.65;;;4.75;;
59115;SDS011;53564;51.930;4.640;2022-09-12T12:49:42;11.25;;;4.70;;
59115;SDS011;53564;51.930;4.640;2022-09-12T12:52:15;11.50;;;4.80;;
59115;SDS011;53564;51.930;4.640;2022-09-12T12:59:55;14.35;;;5.50;;
59115;SDS011;53564;51.930;4.640;2022-09-12T13:04:55;16.33;;;4.80;;
59115;SDS011;53564;51.930;4.640;2022-09-12T13:07:28;11.07;;;4.15;;
59115;SDS011;53564;51.930;4.640;2022-09-12T13:10:02;12.75;;;4.93;;
59115;SDS011;53564;51.930;4.640;2022-09-12T13:12:31;11.23;;;4.40;;
59115;SDS011;53564;51.930;4.640;2022-09-12T13:17:53;11.85;;;4.97;;
59115;SDS011;53564;51.930;4.640;2022-09-12T13:20:26;13.75;;;5.35;;
59115;SDS011;53564;51.930;4.640;2022-09-12T13:22:54;11.68;;;4.20;;
59115;SDS011;53564;51.930;4.640;2022-09-12T13:27:58;11.30;;;4.30;;
59115;SDS011;53564;51.930;4.640;2022-09-12T13:30:36;11.90;;;4.00;;
59115;SDS011;53564;51.930;4.640;2022-09-12T13:44:14;11.65;;;3.95;;
59115;SDS011;53564;51.930;4.640;2022-09-12T13:46:41;10.00;;;3.58;;
59115;SDS011;53564;51.930;4.640;2022-09-12T13:49:16;11.43;;;3.50;;
59115;SDS011;53564;51.930;4.640;2022-09-12T13:51:58;10.57;;;3.83;;
59115;SDS011;53564;51.930;4.640;2022-09-12T13:54:28;10.00;;;3.70;;
59115;SDS011;53564;51.930;4.640;2022-09-12T13:56:55;10.38;;;3.63;;
59115;SDS011;53564;51.930;4.640;2022-09-12T13:59:21;10.70;;;3.80;;
59115;SDS011;53564;51.930;4.640;2022-09-12T14:01:46;12.73;;;4.40;;
59115;SDS011;53564;51.930;4.640;2022-09-12T14:04:17;11.40;;;3.53;;
59115;SDS011;53564;51.930;4.640;2022-09-12T14:07:08;10.68;;;3.50;;
59115;SDS011;53564;51.930;4.640;2022-09-12T14:09:39;10.18;;;3.50;;
59115;SDS011;53564;51.930;4.640;2022-09-12T14:12:12;10.43;;;3.97;;
59115;SDS011;53564;51.930;4.640;2022-09-12T14:14:46;10.40;;;3.38;;
59115;SDS011;53564;51.930;4.640;2022-09-12T14:17:15;10.30;;;3.45;;
59115;SDS011;53564;51.930;4.640;2022-09-12T14:19:41;8.50;;;3.20;;
59115;SDS011;53564;51.930;4.640;2022-09-12T14:22:08;10.00;;;3.58;;
59115;SDS011;53564;51.930;4.640;2022-09-12T14:24:41;11.07;;;3.92;;
59115;SDS011;53564;51.930;4.640;2022-09-12T14:27:06;10.65;;;3.83;;
59115;SDS011;53564;51.930;4.640;2022-09-12T14:29:31;11.00;;;3.38;;
59115;SDS011;53564;51.930;4.640;2022-09-12T14:31:59;9.15;;;3.38;;
59115;SDS011;53564;51.930;4.640;2022-09-12T14:34:26;9.27;;;3.38;;
59115;SDS011;53564;51.930;4.640;2022-09-12T14:36:52;9.68;;;3.60;;
59115;SDS011;53564;51.930;4.640;2022-09-12T14:42:16;10.98;;;3.53;;
59115;SDS011;53564;51.930;4.640;2022-09-12T14:44:51;10.35;;;3.47;;
59115;SDS011;53564;51.930;4.640;2022-09-12T14:47:21;9.68;;;3.03;;
59115;SDS011;53564;51.930;4.640;2022-09-12T14:49:48;8.70;;;3.08;;
59115;SDS011;53564;51.930;4.640;2022-09-12T14:52:26;9.77;;;3.20;;
59115;SDS011;53564;51.930;4.640;2022-09-12T14:54:54;12.18;;;3.60;;
59115;SDS011;53564;51.930;4.640;2022-09-12T14:57:30;9.48;;;3.30;;
59115;SDS011;53564;51.930;4.640;2022-09-12T15:02:38;12.13;;;3.60;;
59115;SDS011;53564;51.930;4.640;2022-09-12T15:07:43;9.87;;;3.60;;
59115;SDS011;53564;51.930;4.640;2022-09-12T15:10:27;9.85;;;3.33;;
59115;SDS011;53564;51.930;4.640;2022-09-12T15:15:29;13.23;;;3.85;;
59115;SDS011;53564;51.930;4.640;2022-09-12T15:17:55;12.15;;;3.92;;
59115;SDS011;53564;51.930;4.640;2022-09-12T15:20:20;9.80;;;3.30;;
59115;SDS011;53564;51.930;4.640;2022-09-12T15:22:46;11.38;;;3.60;;
59115;SDS011;53564;51.930;4.640;2022-09-12T15:25:12;10.98;;;3.15;;
59115;SDS011;53564;51.930;4.640;2022-09-12T15:27:37;10.00;;;3.50;;
59115;SDS011;53564;51.930;4.640;2022-09-12T15:30:05;10.73;;;3.47;;
59115;SDS011;53564;51.930;4.640;2022-09-12T15:32:31;11.07;;;3.60;;
59115;SDS011;53564;51.930;4.640;2022-09-12T15:34:57;11.63;;;3.63;;
59115;SDS011;53564;51.930;4.640;2022-09-12T15:37:23;10.15;;;3.25;;
59115;SDS011;53564;51.930;4.640;2022-09-12T15:39:49;9.68;;;3.50;;
59115;SDS011;53564;51.930;4.640;2022-09-12T15:42:16;9.55;;;3.20;;
59115;SDS011;53564;51.930;4.640;2022-09-12T15:44:44;8.68;;;3.10;;
59115;SDS011;53564;51.930;4.640;2022-09-12T15:47:10;9.98;;;3.25;;
59115;SDS011;53564;51.930;4.640;2022-09-12T15:49:37;11.55;;;3.40;;
59115;SDS011;53564;51.930;4.640;2022-09-12T15:52:03;14.98;;;3.38;;
59115;SDS011;53564;51.930;4.640;2022-09-12T15:54:28;9.23;;;3.40;;
59115;SDS011;53564;51.930;4.640;2022-09-12T15:56:53;8.07;;;3.17;;
59115;SDS011;53564;51.930;4.640;2022-09-12T15:59:19;9.68;;;3.33;;
59115;SDS011;53564;51.930;4.640;2022-09-12T16:01:44;11.77;;;3.53;;
59115;SDS011;53564;51.930;4.640;2022-09-12T16:04:22;10.55;;;3.50;;
59115;SDS011;53564;51.930;4.640;2022-09-12T16:06:49;9.68;;;3.30;;
59115;SDS011;53564;51.930;4.640;2022-09-12T16:09:15;10.38;;;3.33;;
59115;SDS011;53564;51.930;4.640;2022-09-12T16:11:41;9.30;;;3.20;;
59115;SDS011;53564;51.930;4.640;2022-09-12T16:14:06;13.75;;;3.63;;
59115;SDS011;53564;51.930;4.640;2022-09-12T16:16:31;9.02;;;3.38;;
59115;SDS011;53564;51.930;4.640;2022-09-12T16:18:57;9.40;;;3.53;;
59115;SDS011;53564;51.930;4.640;2022-09-12T16:21:22;11.93;;;3.60;;
59115;SDS011;53564;51.930;4.640;2022-09-12T16:23:48;11.27;;;3.53;;
59115;SDS011;53564;51.930;4.640;2022-09-12T16:26:13;9.23;;;3.40;;
59115;SDS011;53564;51.930;4.640;2022-09-12T16:28:39;9.82;;;3.30;;
59115;SDS011;53564;51.930;4.640;2022-09-12T16:31:05;11.55;;;4.00;;
59115;SDS011;53564;51.930;4.640;2022-09-12T16:33:31;10.63;;;3.63;;
59115;SDS011;53564;51.930;4.640;2022-09-12T16:36:00;11.35;;;3.97;;
59115;SDS011;53564;51.930;4.640;2022-09-12T16:38:27;11.00;;;4.47;;
59115;SDS011;53564;51.930;4.640;2022-09-12T16:40:58;10.43;;;4.00;;
59115;SDS011;53564;51.930;4.640;2022-09-12T16:43:28;8.43;;;3.65;;
59115;SDS011;53564;51.930;4.640;2022-09-12T16:48:33;10.07;;;3.25;;
59115;SDS011;53564;51.930;4.640;2022-09-12T16:51:00;11.07;;;3.55;;
59115;SDS011;53564;51.930;4.640;2022-09-12T16:53:29;10.07;;;3.85;;
59115;SDS011;53564;51.930;4.640;2022-09-12T16:55:58;11.68;;;4.22;;
59115;SDS011;53564;51.930;4.640;2022-09-12T16:58:24;9.85;;;3.38;;
59115;SDS011;53564;51.930;4.640;2022-09-12T17:00:57;10.88;;;3.30;;
59115;SDS011;53564;51.930;4.640;2022-09-12T17:03:28;9.80;;;3.63;;
59115;SDS011;53564;51.930;4.640;2022-09-12T17:05:57;9.05;;;3.38;;
59115;SDS011;53564;51.930;4.640;2022-09-12T17:08:33;9.90;;;3.30;;
59115;SDS011;53564;51.930;4.640;2022-09-12T17:11:02;10.15;;;3.63;;